Latest Weather Observations for Geraldton Airport

IDW60801

Issued at 10:13 pm WST Wednesday 8 July 2020 (issued every 10 minutes, with the page automatically refreshed every 10 minutes)

About weather observations | Map of weather stations | Latest weather observations for WA | Other Formats
Station Details ID: 008315 Name: GERALDTON AIRPORT Lat: -28.80 Lon: 114.70 Height: 29.7 m
Data from the previous 72 hours. | See also: Recent months at Geraldton Airport
Date/Time
WST
Temp
°C
App
Temp
°C
Dew
Point
°C
Rel
Hum
%
Delta-T
°C
Wind Press
QNH
hPa
Press
MSL
hPa
Rain since
9am
mm
Dir  Spd
km/h
Gust
km/h
Spd
kts
Gust
kts
08/10:00pm 10.6 8.7 9.0 90 0.8 SE 9 11 5 6 1023.7 1023.6 0.4
08/09:30pm 11.4 9.7 9.8 90 0.8 SE 9 11 5 6 1023.7 1023.6 0.4
08/09:00pm 11.7 10.0 9.9 89 0.9 E 9 11 5 6 1023.6 1023.5 0.4
08/08:30pm 12.3 10.4 10.4 88 1.0 ESE 11 13 6 7 1023.3 1023.2 0.4
08/08:00pm 12.4 10.4 10.3 87 1.1 ESE 11 13 6 7 1023.2 1023.1 0.4
08/07:30pm 12.8 11.0 10.7 87 1.1 E 11 13 6 7 1023.2 1023.1 0.4
08/07:00pm 13.6 11.8 11.0 84 1.4 ESE 11 13 6 7 1022.8 1022.7 0.4
08/06:30pm 14.2 12.6 11.5 84 1.4 SE 11 13 6 7 1022.9 1022.8 0.4
08/06:00pm 14.5 12.4 11.3 81 1.7 SSE 13 15 7 8 1022.8 1022.7 0.4
08/05:30pm 15.2 12.5 11.6 79 1.9 SSE 17 22 9 12 1022.6 1022.5 0.4
08/05:00pm 16.0 12.0 11.8 76 2.3 SSE 24 30 13 16 1022.5 1022.4 0.4
08/04:30pm 16.1 12.4 12.7 80 1.9 SSE 24 32 13 17 1022.2 1022.1 0.4
08/04:00pm 17.4 12.7 13.1 76 2.4 S 30 35 16 19 1022.1 1022.0 0.4
08/03:30pm 17.8 13.3 12.5 71 2.9 S 28 37 15 20 1022.1 1022.0 0.4
08/03:00pm 18.0 13.5 12.5 70 3.0 S 28 33 15 18 1022.1 1022.0 0.4
08/02:30pm 17.8 15.6 12.0 69 3.2 SSE 15 20 8 11 1022.0 1021.9 0.4
08/02:00pm 17.9 15.4 12.4 70 3.0 SSE 17 24 9 13 1022.4 1022.3 0.4
08/01:30pm 17.7 15.3 12.8 73 2.7 SSE 17 20 9 11 1022.7 1022.6 0.4
08/01:00pm 17.5 16.0 13.2 76 2.4 SSE 13 20 7 11 1023.1 1023.0 0.4
08/12:30pm 16.2 16.2 13.7 85 1.4 S 6 9 3 5 1023.5 1023.4 0.4
08/12:00pm 15.7 15.7 14.2 91 0.8 ENE 7 11 4 6 1024.0 1023.9 0.4
08/11:57am 15.6 15.6 14.1 91 0.8 ENE 7 11 4 6 1024.1 1024.0 0.4
08/11:30am 14.7 12.0 12.9 89 1.0 SSE 19 26 10 14 1024.6 1024.5 0.2
08/11:25am 15.4 13.1 12.9 85 1.4 SE 17 26 9 14 1024.6 1024.5 0.0
08/11:08am 15.8 15.3 12.7 82 1.7 ENE 7 9 4 5 1024.6 1024.5 0.0
08/11:00am 15.6 15.1 12.5 82 1.7 ENE 7 9 4 5 1024.7 1024.6 0.0
08/10:45am 15.8 15.4 12.4 80 1.9 E 6 9 3 5 1024.8 1024.7 0.0
08/10:30am 15.9 15.7 11.9 77 2.2 SE 4 7 2 4 1024.9 1024.8 0.0
08/10:00am 15.5 15.9 11.1 75 2.3 CALM 0 0 0 0 1025.0 1024.9 0.0
08/09:30am 14.1 13.8 11.3 83 1.5 NNE 4 9 2 5 1025.3 1025.3 0.0
08/09:00am 13.3 10.1 11.2 87 1.1 NNE 19 20 10 11 1024.7 1024.6 0.0
08/08:30am 12.4 9.7 10.5 88 1.0 NNE 15 19 8 10 1024.4 1024.3 0.0
08/08:00am 11.7 7.9 9.9 89 0.9 NNE 20 24 11 13 1024.2 1024.1 0.0
08/07:30am 11.0 7.1 9.4 90 0.8 NNE 20 24 11 13 1023.9 1023.8 0.0
08/07:00am 10.9 7.0 9.5 91 0.7 NNE 20 24 11 13 1023.6 1023.5 0.0
08/06:30am 10.5 6.5 9.1 91 0.7 NNE 20 22 11 12 1023.5 1023.4 0.0
08/06:00am 10.8 7.0 9.1 89 0.8 NNE 19 24 10 13 1023.4 1023.3 0.0
08/05:30am 11.7 8.5 9.9 89 0.9 NNE 17 20 9 11 1023.4 1023.3 0.0
08/05:00am 12.1 9.0 10.2 88 1.0 NNE 17 20 9 11 1023.5 1023.4 0.0
08/04:30am 12.3 10.0 10.5 89 0.9 NNE 13 15 7 8 1023.8 1023.7 0.0
08/04:00am 12.4 10.6 11.0 91 0.7 NNE 11 15 6 8 1023.9 1023.8 0.0
08/03:30am 12.5 10.0 11.1 91 0.7 NE 15 17 8 9 1023.9 1023.8 0.0
08/03:00am 12.5 11.6 11.2 92 0.7 NE 7 11 4 6 1024.0 1023.9 0.0
08/02:30am 12.5 11.2 11.4 93 0.6 NE 9 11 5 6 1023.9 1023.8 0.0
08/02:00am 12.2 11.2 11.1 93 0.6 N 7 11 4 6 1024.4 1024.3 0.0
08/01:30am 12.2 9.7 11.1 93 0.6 NE 15 15 8 8 1024.1 1024.0 0.0
08/01:00am 12.4 11.1 11.3 93 0.6 NNE 9 11 5 6 1024.3 1024.2 0.0
08/12:30am 12.6 11.4 11.5 93 0.6 NNE 9 11 5 6 1024.2 1024.1 0.0
08/12:00am 12.8 11.2 11.5 92 0.7 NE 11 13 6 7 1024.2 1024.1 0.0
 
Date/Time
WST
Temp
°C
App
Temp
°C
Dew
Point
°C
Rel
Hum
%
Delta-T
°C
Wind Press
QNH
hPa
Press
MSL
hPa
Rain since
9am
mm
Dir  Spd
km/h
Gust
km/h
Spd
kts
Gust
kts
07/11:30pm 13.2 12.1 11.9 92 0.7 NNE 9 13 5 7 1024.2 1024.1 0.0
07/11:00pm 13.3 11.8 12.0 92 0.7 NNE 11 13 6 7 1024.2 1024.1 0.0
07/10:30pm 13.0 11.8 11.7 92 0.7 NE 9 11 5 6 1024.4 1024.3 0.0
07/10:00pm 12.8 10.8 11.4 91 0.7 NNE 13 15 7 8 1024.3 1024.2 0.0
07/09:30pm 13.1 10.7 11.5 90 0.8 NNE 15 17 8 9 1024.4 1024.3 0.0
07/09:00pm 13.3 11.4 11.7 90 0.8 NNE 13 15 7 8 1024.5 1024.4 0.0
07/08:30pm 14.1 12.4 12.3 89 1.0 NNE 13 15 7 8 1024.4 1024.3 0.0
07/08:00pm 14.1 12.4 12.3 89 1.0 NNE 13 15 7 8 1024.4 1024.3 0.0
07/07:30pm 13.7 12.3 12.1 90 0.9 ENE 11 11 6 6 1023.9 1023.8 0.0
07/07:00pm 14.4 13.1 12.4 88 1.1 NNE 11 13 6 7 1023.9 1023.8 0.0
07/06:30pm 15.3 14.7 12.4 83 1.6 ENE 7 9 4 5 1023.7 1023.6 0.0
07/06:00pm 15.4 15.7 12.2 81 1.7 SSE 2 9 1 5 1023.5 1023.4 0.0
07/05:30pm 15.6 15.5 12.2 80 1.9 E 4 7 2 4 1023.3 1023.2 0.0
07/05:00pm 15.2 13.7 11.8 80 1.8 SSE 11 15 6 8 1023.1 1023.0 0.0
07/04:30pm 16.6 14.5 11.3 71 2.9 S 13 17 7 9 1023.1 1023.0 0.0
07/04:00pm 16.7 13.2 11.0 69 3.0 S 20 28 11 15 1022.9 1022.8 0.0
07/03:30pm 17.5 14.0 10.9 65 3.6 SSW 20 26 11 14 1022.7 1022.6 0.0
07/03:00pm 18.2 15.2 10.6 61 4.1 SSW 17 22 9 12 1022.7 1022.6 0.0
07/02:30pm 18.6 15.8 9.9 57 4.6 S 15 20 8 11 1022.8 1022.7 0.0
07/02:00pm 18.2 16.1 9.8 58 4.4 SW 11 19 6 10 1023.0 1022.9 0.0
07/01:30pm 18.5 17.2 11.1 62 4.0 SSE 9 15 5 8 1023.2 1023.1 0.0
07/01:00pm 17.9 15.9 10.3 61 4.0 SE 11 17 6 9 1023.7 1023.6 0.0
07/12:30pm 17.8 15.6 10.9 64 3.7 SE 13 17 7 9 1024.0 1023.9 0.0
07/12:00pm 17.5 15.0 11.1 66 3.4 SSE 15 17 8 9 1024.3 1024.2 0.0
07/11:30am 17.4 15.2 10.8 65 3.5 SE 13 17 7 9 1024.6 1024.5 0.0
07/11:00am 16.7 14.6 11.2 70 3.0 ESE 13 17 7 9 1024.7 1024.6 0.0
07/10:30am 16.4 14.9 12.0 75 2.4 NE 11 15 6 8 1025.0 1024.9 0.0
07/10:00am 16.2 14.2 11.4 73 2.6 NNE 13 15 7 8 1025.0 1024.9 0.0
07/09:30am 15.8 13.8 11.6 76 2.3 NNE 13 15 7 8 1024.8 1024.7 0.0
07/09:00am 15.3 12.9 11.3 77 2.1 NNE 15 17 8 9 1024.7 1024.6 0.0
07/08:30am 14.3 13.0 11.3 82 1.6 NE 9 13 5 7 1024.3 1024.2 0.0
07/08:00am 13.9 11.4 11.1 83 1.5 NNE 15 19 8 10 1024.0 1023.9 0.0
07/07:30am 13.8 11.3 11.0 83 1.5 NNE 15 17 8 9 1023.6 1023.5 0.0
07/07:00am 13.3 10.7 10.7 84 1.4 NNE 15 20 8 11 1023.4 1023.3 0.0
07/06:30am 13.4 10.4 10.8 84 1.4 NNE 17 20 9 11 1023.1 1023.0 0.0
07/06:00am 13.2 9.8 10.7 85 1.3 NNE 19 20 10 11 1022.7 1022.6 0.0
07/05:30am 13.2 10.2 10.6 84 1.4 NNE 17 22 9 12 1022.6 1022.5 0.0
07/05:00am 12.9 9.8 10.4 85 1.3 NE 17 20 9 11 1022.7 1022.6 0.0
07/04:30am 13.1 9.7 10.5 84 1.4 NNE 19 22 10 12 1022.7 1022.6 0.0
07/04:00am 12.8 9.3 10.3 85 1.3 NNE 19 20 10 11 1022.7 1022.6 0.0
07/03:30am 13.0 9.6 10.5 85 1.3 NNE 19 24 10 13 1022.9 1022.8 0.0
07/03:00am 12.7 9.3 10.4 86 1.2 NNE 19 22 10 12 1022.8 1022.7 0.0
07/02:30am 12.6 9.4 10.1 85 1.3 NNE 17 22 9 12 1022.9 1022.8 0.0
07/02:00am 12.3 8.6 10.0 86 1.2 NNE 20 24 11 13 1022.9 1022.8 0.0
07/01:30am 12.2 8.6 9.9 86 1.2 NNE 19 22 10 12 1022.8 1022.7 0.0
07/01:00am 11.9 8.3 10.0 88 1.0 NNE 19 22 10 12 1022.6 1022.5 0.0
07/12:30am 11.5 8.3 9.8 89 0.9 NNE 17 19 9 10 1022.6 1022.5 0.0
07/12:00am 11.5 8.6 9.6 88 1.0 NNE 15 17 8 9 1022.6 1022.5 0.0
 
Date/Time
WST
Temp
°C
App
Temp
°C
Dew
Point
°C
Rel
Hum
%
Delta-T
°C
Wind Press
QNH
hPa
Press
MSL
hPa
Rain since
9am
mm
Dir  Spd
km/h
Gust
km/h
Spd
kts
Gust
kts
06/11:30pm 12.0 9.6 9.9 87 1.1 NNE 13 15 7 8 1022.9 1022.8 0.0
06/11:00pm 12.7 10.8 10.4 86 1.2 NNE 11 13 6 7 1022.9 1022.8 0.0
06/10:30pm 13.1 11.2 10.5 84 1.4 NNE 11 13 6 7 1022.9 1022.8 0.0
06/10:00pm 14.2 13.3 11.2 82 1.6 NE 7 9 4 5 1022.9 1022.8 0.0
06/09:30pm 13.5 13.1 9.9 79 1.9 SE 2 7 1 4 1022.8 1022.7 0.0
06/09:00pm 15.1 14.9 10.3 73 2.5 SSW 2 6 1 3 1022.8 1022.7 0.0
06/08:30pm 15.6 14.4 10.4 71 2.7 SSW 7 11 4 6 1022.6 1022.5 0.0
06/08:00pm 15.4 13.9 10.4 72 2.6 SW 9 15 5 8 1022.7 1022.6 0.0
06/07:30pm 16.4 13.8 10.7 69 3.0 SW 15 19 8 10 1022.5 1022.4 0.0
06/07:00pm 16.9 14.1 11.2 69 3.1 WSW 17 20 9 11 1022.4 1022.3 0.0
06/06:30pm 16.8 14.2 11.9 73 2.7 SW 17 26 9 14 1022.1 1022.0 0.0
06/06:00pm 17.5 13.5 11.8 69 3.1 WSW 24 32 13 17 1021.7 1021.6 0.0
06/05:30pm 18.1 15.0 10.2 60 4.2 W 17 24 9 13 1021.3 1021.2 0.0
06/05:00pm 18.7 15.5 10.0 57 4.6 W 17 24 9 13 1020.8 1020.8 0.0
06/04:30pm 19.1 14.9 9.9 55 4.9 W 22 28 12 15 1020.7 1020.7 0.0
06/04:00pm 19.8 15.7 10.0 53 5.2 W 22 30 12 16 1020.6 1020.6 0.0
06/03:30pm 19.5 15.3 9.7 53 5.2 W 22 30 12 16 1020.7 1020.7 0.0
06/03:00pm 19.6 14.9 9.2 51 5.5 W 24 37 13 20 1020.5 1020.5 0.0
06/02:30pm 19.7 14.9 9.0 50 5.6 W 24 35 13 19 1020.4 1020.4 0.0
06/02:00pm 20.5 16.0 10.0 51 5.6 WNW 24 33 13 18 1020.3 1020.3 0.0
06/01:30pm 20.1 15.0 7.8 45 6.3 WNW 24 30 13 16 1020.4 1020.4 0.0
06/01:00pm 19.5 14.4 7.6 46 6.1 W 24 35 13 19 1020.5 1020.5 0.0
06/12:30pm 19.8 15.0 8.8 49 5.8 W 24 35 13 19 1020.6 1020.6 0.0
06/12:00pm 19.3 13.9 9.5 53 5.2 W 28 35 15 19 1020.6 1020.6 0.0
06/11:30am 19.2 14.3 9.9 55 5.0 W 26 35 14 19 1020.7 1020.7 0.0
06/11:00am 20.4 16.0 9.0 48 6.0 WNW 22 30 12 16 1020.6 1020.6 0.0
06/10:30am 19.9 14.8 9.2 50 5.7 W 26 33 14 18 1020.5 1020.5 0.0
06/10:00am 19.7 14.9 9.0 50 5.6 W 24 28 13 15 1020.4 1020.4 0.0
06/09:30am 19.5 15.6 8.5 49 5.7 WNW 19 26 10 14 1020.3 1020.3 0.0
06/09:00am 18.9 15.8 10.2 57 4.6 WNW 17 24 9 13 1020.3 1020.3 0.0
06/08:30am 18.2 16.1 11.0 63 3.9 WNW 13 20 7 11 1020.0 1020.0 0.0
06/08:00am 17.1 14.0 10.2 64 3.6 WNW 17 24 9 13 1019.9 1019.9 0.0
06/07:30am 16.5 12.6 8.5 59 4.1 W 19 22 10 12 1019.6 1019.6 0.0
06/07:00am 16.8 12.8 10.4 66 3.4 W 22 32 12 17 1019.1 1019.1 0.0
06/06:30am 17.0 13.4 10.6 66 3.4 W 20 28 11 15 1018.5 1018.5 0.0
06/06:00am 16.8 13.4 10.4 66 3.4 W 19 24 10 13 1018.0 1018.0 0.0
06/05:30am 16.8 13.8 10.6 67 3.3 W 17 20 9 11 1017.6 1017.6 0.0
06/05:00am 17.0 13.6 11.3 69 3.1 W 20 26 11 14 1017.5 1017.5 0.0
06/04:30am 17.6 14.8 12.7 73 2.7 W 19 24 10 13 1017.4 1017.4 0.0
06/04:00am 16.7 15.3 13.4 81 1.9 W 13 20 7 11 1017.3 1017.3 0.0
06/03:30am 15.5 14.9 13.5 88 1.1 N 9 11 5 6 1017.3 1017.3 0.0
06/03:00am 15.2 14.1 13.2 88 1.1 NNE 11 13 6 7 1017.2 1017.2 0.0
06/02:30am 14.5 13.5 12.4 87 1.1 N 9 11 5 6 1017.0 1017.0 0.0
06/02:00am 15.4 14.7 13.1 86 1.3 NNE 9 11 5 6 1016.9 1016.9 0.0
06/01:30am 16.2 15.2 13.5 84 1.5 ENE 11 13 6 7 1017.0 1017.0 0.0
06/01:00am 16.5 16.0 12.8 79 2.1 S 7 9 4 5 1017.4 1017.4 0.0
06/12:30am 17.7 16.3 13.4 76 2.4 SSW 13 15 7 8 1017.3 1017.3 0.0
06/12:00am 18.0 15.7 14.1 78 2.2 SSW 19 24 10 13 1017.4 1017.4 0.0
 
Date/Time
WST
Temp
°C
App
Temp
°C
Dew
Point
°C
Rel
Hum
%
Delta-T
°C
Wind Press
QNH
hPa
Press
MSL
hPa
Rain since
9am
mm
Dir  Spd
km/h
Gust
km/h
Spd
kts
Gust
kts
05/11:30pm 18.0 15.8 14.3 79 2.1 SSW 19 24 10 13 1017.5 1017.5 0.0
05/11:13pm 18.0 15.3 14.5 80 2.0 SSW 22 30 12 16 1017.4 1017.4 0.0
05/11:00pm 18.1 15.1 14.8 81 1.9 SSW 24 32 13 17 1017.4 1017.4 0.0
05/10:30pm 18.5 15.0 15.6 83 1.7 SSW 28 32 15 17 1017.3 1017.3 0.0

Other formats

Comma delimited format used in spreadsheet applications
http://www.bom.gov.au/fwo/IDW60801/IDW60801.94403.axf

JavaScript Object Notation format (JSON) in row-major order
http://www.bom.gov.au/fwo/IDW60801/IDW60801.94403.json

Data quality

Most of these data are generated automatically and are frequently updated. Quality checks on data are not normally performed. It is possible for incorrect values to appear. Refer to information at About Latest Weather Observations and please check the disclaimer before using these data.